sensor_id;sensor_type;location;lat;lon;timestamp;temperature;humidity
55988;DHT22;67216;50.930;4.514;2023-02-14T00:02:25;3.70;92.00
55988;DHT22;67216;50.930;4.514;2023-02-14T00:04:53;3.70;92.70
55988;DHT22;67216;50.930;4.514;2023-02-14T00:07:22;3.80;92.50
55988;DHT22;67216;50.930;4.514;2023-02-14T00:09:47;3.70;92.50
55988;DHT22;67216;50.930;4.514;2023-02-14T00:12:16;3.70;92.30
55988;DHT22;67216;50.930;4.514;2023-02-14T00:14:41;3.80;92.40
55988;DHT22;67216;50.930;4.514;2023-02-14T00:17:25;3.80;92.20
55988;DHT22;67216;50.930;4.514;2023-02-14T00:19:51;3.80;92.10
55988;DHT22;67216;50.930;4.514;2023-02-14T00:22:19;3.80;92.40
55988;DHT22;67216;50.930;4.514;2023-02-14T00:24:48;3.80;92.30
55988;DHT22;67216;50.930;4.514;2023-02-14T00:27:14;3.70;91.80
55988;DHT22;67216;50.930;4.514;2023-02-14T00:29:43;3.70;92.10
55988;DHT22;67216;50.930;4.514;2023-02-14T00:32:08;3.70;92.30
55988;DHT22;67216;50.930;4.514;2023-02-14T00:34:36;3.70;92.30
55988;DHT22;67216;50.930;4.514;2023-02-14T00:37:03;3.80;92.10
55988;DHT22;67216;50.930;4.514;2023-02-14T00:39:29;3.70;92.00
55988;DHT22;67216;50.930;4.514;2023-02-14T00:41:57;3.70;92.20
55988;DHT22;67216;50.930;4.514;2023-02-14T00:44:25;3.70;92.60
55988;DHT22;67216;50.930;4.514;2023-02-14T00:46:51;3.70;92.80
55988;DHT22;67216;50.930;4.514;2023-02-14T00:49:17;3.70;92.70
55988;DHT22;67216;50.930;4.514;2023-02-14T00:51:42;3.70;92.50
55988;DHT22;67216;50.930;4.514;2023-02-14T00:54:13;3.70;91.80
55988;DHT22;67216;50.930;4.514;2023-02-14T00:56:42;3.70;91.90
55988;DHT22;67216;50.930;4.514;2023-02-14T00:59:07;3.60;91.70
55988;DHT22;67216;50.930;4.514;2023-02-14T01:01:36;3.50;91.70
55988;DHT22;67216;50.930;4.514;2023-02-14T01:04:04;3.50;92.30
55988;DHT22;67216;50.930;4.514;2023-02-14T01:06:30;3.40;92.00
55988;DHT22;67216;50.930;4.514;2023-02-14T01:08:56;3.40;91.80
55988;DHT22;67216;50.930;4.514;2023-02-14T01:11:23;3.30;91.70
55988;DHT22;67216;50.930;4.514;2023-02-14T01:13:50;3.30;91.60
55988;DHT22;67216;50.930;4.514;2023-02-14T01:16:19;3.20;92.60
55988;DHT22;67216;50.930;4.514;2023-02-14T01:18:46;3.10;92.70
55988;DHT22;67216;50.930;4.514;2023-02-14T01:21:17;3.10;92.90
55988;DHT22;67216;50.930;4.514;2023-02-14T01:23:44;3.00;92.60
55988;DHT22;67216;50.930;4.514;2023-02-14T01:26:11;3.00;92.50
55988;DHT22;67216;50.930;4.514;2023-02-14T01:28:37;2.90;92.30
55988;DHT22;67216;50.930;4.514;2023-02-14T01:33:38;2.80;92.80
55988;DHT22;67216;50.930;4.514;2023-02-14T01:36:14;2.90;93.10
55988;DHT22;67216;50.930;4.514;2023-02-14T01:38:43;2.80;93.00
55988;DHT22;67216;50.930;4.514;2023-02-14T01:41:09;2.70;93.40
55988;DHT22;67216;50.930;4.514;2023-02-14T01:43:54;2.90;94.10
55988;DHT22;67216;50.930;4.514;2023-02-14T01:46:21;3.10;93.30
55988;DHT22;67216;50.930;4.514;2023-02-14T01:48:53;3.40;93.00
55988;DHT22;67216;50.930;4.514;2023-02-14T01:51:19;3.80;91.30
55988;DHT22;67216;50.930;4.514;2023-02-14T01:53:49;3.90;90.00
55988;DHT22;67216;50.930;4.514;2023-02-14T01:56:20;3.90;89.20
55988;DHT22;67216;50.930;4.514;2023-02-14T01:58:52;3.60;90.40
55988;DHT22;67216;50.930;4.514;2023-02-14T02:01:20;3.40;90.90
55988;DHT22;67216;50.930;4.514;2023-02-14T02:03:51;3.30;91.40
55988;DHT22;67216;50.930;4.514;2023-02-14T02:06:22;2.80;92.10
55988;DHT22;67216;50.930;4.514;2023-02-14T02:11:47;2.70;92.90
55988;DHT22;67216;50.930;4.514;2023-02-14T02:14:18;3.20;91.90
55988;DHT22;67216;50.930;4.514;2023-02-14T02:16:51;3.20;90.90
55988;DHT22;67216;50.930;4.514;2023-02-14T02:36:28;2.30;93.00
55988;DHT22;67216;50.930;4.514;2023-02-14T02:39:21;2.20;93.00
55988;DHT22;67216;50.930;4.514;2023-02-14T02:47:36;2.20;92.90
55988;DHT22;67216;50.930;4.514;2023-02-14T02:53:38;2.50;93.00
55988;DHT22;67216;50.930;4.514;2023-02-14T02:56:22;2.50;92.80
55988;DHT22;67216;50.930;4.514;2023-02-14T03:02:25;2.50;93.00
55988;DHT22;67216;50.930;4.514;2023-02-14T03:04:55;2.60;93.10
55988;DHT22;67216;50.930;4.514;2023-02-14T03:07:34;3.00;92.00
55988;DHT22;67216;50.930;4.514;2023-02-14T03:12:45;3.10;90.80
55988;DHT22;67216;50.930;4.514;2023-02-14T03:17:55;2.70;90.80
55988;DHT22;67216;50.930;4.514;2023-02-14T03:26:22;2.10;91.20
55988;DHT22;67216;50.930;4.514;2023-02-14T03:29:09;2.10;91.40
55988;DHT22;67216;50.930;4.514;2023-02-14T03:31:46;2.60;90.60
55988;DHT22;67216;50.930;4.514;2023-02-14T03:37:10;3.20;86.90
55988;DHT22;67216;50.930;4.514;2023-02-14T03:40:02;2.50;88.60
55988;DHT22;67216;50.930;4.514;2023-02-14T03:42:44;1.90;91.20
55988;DHT22;67216;50.930;4.514;2023-02-14T03:45:19;2.30;91.60
55988;DHT22;67216;50.930;4.514;2023-02-14T03:47:50;2.60;90.80
55988;DHT22;67216;50.930;4.514;2023-02-14T03:50:18;2.70;90.00
55988;DHT22;67216;50.930;4.514;2023-02-14T03:52:47;2.80;88.30
55988;DHT22;67216;50.930;4.514;2023-02-14T03:55:16;3.00;85.90
55988;DHT22;67216;50.930;4.514;2023-02-14T03:57:57;2.90;84.70
55988;DHT22;67216;50.930;4.514;2023-02-14T04:00:29;2.40;85.70
55988;DHT22;67216;50.930;4.514;2023-02-14T04:03:02;1.90;88.10
55988;DHT22;67216;50.930;4.514;2023-02-14T04:05:36;1.90;89.30
55988;DHT22;67216;50.930;4.514;2023-02-14T04:08:09;1.60;90.30
55988;DHT22;67216;50.930;4.514;2023-02-14T04:10:36;1.40;91.30
55988;DHT22;67216;50.930;4.514;2023-02-14T04:13:04;1.20;92.20
55988;DHT22;67216;50.930;4.514;2023-02-14T04:15:30;1.30;92.90
55988;DHT22;67216;50.930;4.514;2023-02-14T04:18:01;1.50;93.40
55988;DHT22;67216;50.930;4.514;2023-02-14T04:20:46;1.50;93.80
55988;DHT22;67216;50.930;4.514;2023-02-14T04:23:14;1.50;94.20
55988;DHT22;67216;50.930;4.514;2023-02-14T04:25:42;1.50;94.30
55988;DHT22;67216;50.930;4.514;2023-02-14T04:28:11;1.40;94.10
55988;DHT22;67216;50.930;4.514;2023-02-14T04:30:37;1.40;94.10
55988;DHT22;67216;50.930;4.514;2023-02-14T04:33:03;1.60;94.90
55988;DHT22;67216;50.930;4.514;2023-02-14T04:35:31;2.00;93.20
55988;DHT22;67216;50.930;4.514;2023-02-14T04:37:56;2.10;92.60
55988;DHT22;67216;50.930;4.514;2023-02-14T04:40:22;1.80;92.50
55988;DHT22;67216;50.930;4.514;2023-02-14T04:42:48;2.00;92.60
55988;DHT22;67216;50.930;4.514;2023-02-14T04:45:14;2.20;91.90
55988;DHT22;67216;50.930;4.514;2023-02-14T04:47:40;2.30;91.00
55988;DHT22;67216;50.930;4.514;2023-02-14T04:50:06;2.40;90.40
55988;DHT22;67216;50.930;4.514;2023-02-14T04:52:33;2.30;90.00
55988;DHT22;67216;50.930;4.514;2023-02-14T04:54:58;2.10;89.60
55988;DHT22;67216;50.930;4.514;2023-02-14T04:57:24;2.00;89.90
55988;DHT22;67216;50.930;4.514;2023-02-14T04:59:49;2.00;89.60
55988;DHT22;67216;50.930;4.514;2023-02-14T05:02:15;1.70;89.90
55988;DHT22;67216;50.930;4.514;2023-02-14T05:04:41;1.70;90.70
55988;DHT22;67216;50.930;4.514;2023-02-14T05:07:09;1.60;91.00
55988;DHT22;67216;50.930;4.514;2023-02-14T05:09:39;1.60;91.50
55988;DHT22;67216;50.930;4.514;2023-02-14T05:12:07;2.10;90.70
55988;DHT22;67216;50.930;4.514;2023-02-14T05:14:33;2.50;88.20
55988;DHT22;67216;50.930;4.514;2023-02-14T05:16:59;2.50;86.60
55988;DHT22;67216;50.930;4.514;2023-02-14T05:19:25;2.30;87.00
55988;DHT22;67216;50.930;4.514;2023-02-14T05:21:53;2.40;86.30
55988;DHT22;67216;50.930;4.514;2023-02-14T05:24:19;2.00;86.90
55988;DHT22;67216;50.930;4.514;2023-02-14T05:26:45;1.60;88.40
55988;DHT22;67216;50.930;4.514;2023-02-14T05:29:11;1.60;89.70
55988;DHT22;67216;50.930;4.514;2023-02-14T05:31:36;1.30;90.30
55988;DHT22;67216;50.930;4.514;2023-02-14T05:34:02;1.20;91.20
55988;DHT22;67216;50.930;4.514;2023-02-14T05:36:30;1.00;92.00
55988;DHT22;67216;50.930;4.514;2023-02-14T05:38:56;0.90;92.80
55988;DHT22;67216;50.930;4.514;2023-02-14T05:41:22;1.00;92.90
55988;DHT22;67216;50.930;4.514;2023-02-14T05:43:48;1.10;92.60
55988;DHT22;67216;50.930;4.514;2023-02-14T05:46:14;1.20;92.20
55988;DHT22;67216;50.930;4.514;2023-02-14T05:48:39;1.10;92.20
55988;DHT22;67216;50.930;4.514;2023-02-14T05:51:07;0.80;92.30
55988;DHT22;67216;50.930;4.514;2023-02-14T05:53:33;0.80;92.70
55988;DHT22;67216;50.930;4.514;2023-02-14T05:56:03;0.80;92.90
55988;DHT22;67216;50.930;4.514;2023-02-14T05:58:31;0.80;92.90
55988;DHT22;67216;50.930;4.514;2023-02-14T06:00:58;0.70;92.80
55988;DHT22;67216;50.930;4.514;2023-02-14T06:03:24;0.80;92.70
55988;DHT22;67216;50.930;4.514;2023-02-14T06:05:51;1.30;92.50
55988;DHT22;67216;50.930;4.514;2023-02-14T06:08:17;1.70;91.30
55988;DHT22;67216;50.930;4.514;2023-02-14T06:10:45;1.60;90.70
55988;DHT22;67216;50.930;4.514;2023-02-14T06:13:11;1.40;90.90
55988;DHT22;67216;50.930;4.514;2023-02-14T06:15:37;1.40;90.80
55988;DHT22;67216;50.930;4.514;2023-02-14T06:18:03;1.60;90.40
55988;DHT22;67216;50.930;4.514;2023-02-14T06:20:30;1.30;90.70
55988;DHT22;67216;50.930;4.514;2023-02-14T06:22:56;1.10;91.30
55988;DHT22;67216;50.930;4.514;2023-02-14T06:25:23;0.90;91.70
55988;DHT22;67216;50.930;4.514;2023-02-14T06:27:54;0.90;92.40
55988;DHT22;67216;50.930;4.514;2023-02-14T06:30:21;1.00;92.90
55988;DHT22;67216;50.930;4.514;2023-02-14T06:32:47;1.00;92.90
55988;DHT22;67216;50.930;4.514;2023-02-14T06:35:13;1.20;92.80
55988;DHT22;67216;50.930;4.514;2023-02-14T06:37:40;1.40;92.00
55988;DHT22;67216;50.930;4.514;2023-02-14T06:40:10;1.50;91.50
55988;DHT22;67216;50.930;4.514;2023-02-14T06:42:36;1.40;91.20
55988;DHT22;67216;50.930;4.514;2023-02-14T06:45:03;1.30;91.40
55988;DHT22;67216;50.930;4.514;2023-02-14T06:47:29;1.20;91.50
55988;DHT22;67216;50.930;4.514;2023-02-14T06:49:55;1.20;91.80
55988;DHT22;67216;50.930;4.514;2023-02-14T06:52:23;1.20;92.10
55988;DHT22;67216;50.930;4.514;2023-02-14T06:54:48;1.30;92.40
55988;DHT22;67216;50.930;4.514;2023-02-14T06:57:17;1.40;92.50
55988;DHT22;67216;50.930;4.514;2023-02-14T06:59:42;1.70;92.20
55988;DHT22;67216;50.930;4.514;2023-02-14T07:02:10;1.60;91.90
55988;DHT22;67216;50.930;4.514;2023-02-14T07:04:38;1.60;92.20
55988;DHT22;67216;50.930;4.514;2023-02-14T07:07:04;1.90;91.90
55988;DHT22;67216;50.930;4.514;2023-02-14T07:09:30;2.00;91.80
55988;DHT22;67216;50.930;4.514;2023-02-14T07:11:56;2.10;92.20
55988;DHT22;67216;50.930;4.514;2023-02-14T07:14:22;2.20;92.50
55988;DHT22;67216;50.930;4.514;2023-02-14T07:16:48;2.50;92.80
55988;DHT22;67216;50.930;4.514;2023-02-14T07:19:14;3.00;93.30
55988;DHT22;67216;50.930;4.514;2023-02-14T07:21:40;3.50;94.00
55988;DHT22;67216;50.930;4.514;2023-02-14T07:24:06;4.10;94.30
55988;DHT22;67216;50.930;4.514;2023-02-14T07:26:33;4.50;94.20
55988;DHT22;67216;50.930;4.514;2023-02-14T07:28:58;5.00;94.20
55988;DHT22;67216;50.930;4.514;2023-02-14T07:31:24;5.40;93.80
55988;DHT22;67216;50.930;4.514;2023-02-14T07:33:50;5.80;92.30
55988;DHT22;67216;50.930;4.514;2023-02-14T07:36:16;6.30;90.90
55988;DHT22;67216;50.930;4.514;2023-02-14T07:38:47;6.70;86.90
55988;DHT22;67216;50.930;4.514;2023-02-14T07:41:13;7.20;86.80
55988;DHT22;67216;50.930;4.514;2023-02-14T07:43:39;7.50;80.00
55988;DHT22;67216;50.930;4.514;2023-02-14T07:46:05;7.60;79.30
55988;DHT22;67216;50.930;4.514;2023-02-14T07:48:32;7.70;74.50
55988;DHT22;67216;50.930;4.514;2023-02-14T07:51:00;7.60;73.50
55988;DHT22;67216;50.930;4.514;2023-02-14T07:53:26;7.50;74.80
55988;DHT22;67216;50.930;4.514;2023-02-14T07:55:52;7.70;72.90
55988;DHT22;67216;50.930;4.514;2023-02-14T07:58:20;8.30;72.00
55988;DHT22;67216;50.930;4.514;2023-02-14T08:00:46;8.40;70.60
55988;DHT22;67216;50.930;4.514;2023-02-14T08:03:14;9.00;69.90
55988;DHT22;67216;50.930;4.514;2023-02-14T08:05:41;9.70;69.00
55988;DHT22;67216;50.930;4.514;2023-02-14T08:08:07;9.60;67.30
55988;DHT22;67216;50.930;4.514;2023-02-14T08:10:33;9.80;66.80
55988;DHT22;67216;50.930;4.514;2023-02-14T08:12:59;11.10;65.90
55988;DHT22;67216;50.930;4.514;2023-02-14T08:15:27;12.30;63.10
55988;DHT22;67216;50.930;4.514;2023-02-14T08:18:12;13.30;59.20
55988;DHT22;67216;50.930;4.514;2023-02-14T08:20:38;14.40;55.60
55988;DHT22;67216;50.930;4.514;2023-02-14T08:23:04;15.30;53.70
55988;DHT22;67216;50.930;4.514;2023-02-14T08:25:30;16.10;51.50
55988;DHT22;67216;50.930;4.514;2023-02-14T08:28:01;16.90;49.90
55988;DHT22;67216;50.930;4.514;2023-02-14T08:30:27;17.30;47.40
55988;DHT22;67216;50.930;4.514;2023-02-14T08:32:53;17.70;46.70
55988;DHT22;67216;50.930;4.514;2023-02-14T08:35:19;18.20;44.70
55988;DHT22;67216;50.930;4.514;2023-02-14T08:37:45;18.60;43.80
55988;DHT22;67216;50.930;4.514;2023-02-14T08:40:11;18.50;43.30
55988;DHT22;67216;50.930;4.514;2023-02-14T08:42:37;18.60;43.00
55988;DHT22;67216;50.930;4.514;2023-02-14T08:45:04;18.70;43.00
55988;DHT22;67216;50.930;4.514;2023-02-14T08:47:33;18.70;42.20
55988;DHT22;67216;50.930;4.514;2023-02-14T08:50:07;18.80;42.40
55988;DHT22;67216;50.930;4.514;2023-02-14T08:52:35;19.00;41.90
55988;DHT22;67216;50.930;4.514;2023-02-14T08:55:01;19.40;41.80
55988;DHT22;67216;50.930;4.514;2023-02-14T08:57:29;19.50;41.70
55988;DHT22;67216;50.930;4.514;2023-02-14T08:59:56;19.40;41.40
55988;DHT22;67216;50.930;4.514;2023-02-14T09:02:22;19.70;41.20
55988;DHT22;67216;50.930;4.514;2023-02-14T09:04:48;19.60;41.10
55988;DHT22;67216;50.930;4.514;2023-02-14T09:07:14;18.80;42.00
55988;DHT22;67216;50.930;4.514;2023-02-14T09:09:40;18.20;43.10
55988;DHT22;67216;50.930;4.514;2023-02-14T09:12:07;17.00;45.40
55988;DHT22;67216;50.930;4.514;2023-02-14T09:14:38;15.30;50.40
55988;DHT22;67216;50.930;4.514;2023-02-14T09:17:05;14.20;53.70
55988;DHT22;67216;50.930;4.514;2023-02-14T09:19:35;13.50;57.00
55988;DHT22;67216;50.930;4.514;2023-02-14T09:22:03;13.00;57.20
55988;DHT22;67216;50.930;4.514;2023-02-14T09:24:30;12.30;59.60
55988;DHT22;67216;50.930;4.514;2023-02-14T09:26:57;12.00;60.00
55988;DHT22;67216;50.930;4.514;2023-02-14T09:29:27;11.80;62.00
55988;DHT22;67216;50.930;4.514;2023-02-14T09:31:56;11.50;63.10
55988;DHT22;67216;50.930;4.514;2023-02-14T09:34:23;11.20;64.80
55988;DHT22;67216;50.930;4.514;2023-02-14T09:36:49;11.40;64.50
55988;DHT22;67216;50.930;4.514;2023-02-14T09:39:35;11.50;63.50
55988;DHT22;67216;50.930;4.514;2023-02-14T09:42:19;11.50;63.50
55988;DHT22;67216;50.930;4.514;2023-02-14T09:44:53;11.20;66.00
55988;DHT22;67216;50.930;4.514;2023-02-14T09:49:55;11.60;62.10
55988;DHT22;67216;50.930;4.514;2023-02-14T09:52:26;11.20;65.50
55988;DHT22;67216;50.930;4.514;2023-02-14T09:54:56;10.60;66.60
55988;DHT22;67216;50.930;4.514;2023-02-14T10:05:51;9.20;73.50
55988;DHT22;67216;50.930;4.514;2023-02-14T10:10:47;9.60;73.40
55988;DHT22;67216;50.930;4.514;2023-02-14T10:19:06;9.80;71.40
55988;DHT22;67216;50.930;4.514;2023-02-14T10:21:40;9.60;71.60
55988;DHT22;67216;50.930;4.514;2023-02-14T10:24:18;9.70;72.80
55988;DHT22;67216;50.930;4.514;2023-02-14T10:26:47;10.00;72.50
55988;DHT22;67216;50.930;4.514;2023-02-14T10:29:16;10.10;71.40
55988;DHT22;67216;50.930;4.514;2023-02-14T10:32:00;10.20;71.60
55988;DHT22;67216;50.930;4.514;2023-02-14T10:34:40;10.20;70.30
55988;DHT22;67216;50.930;4.514;2023-02-14T10:50:48;10.80;70.00
55988;DHT22;67216;50.930;4.514;2023-02-14T10:53:33;11.00;68.30
55988;DHT22;67216;50.930;4.514;2023-02-14T10:58:35;11.40;66.90
55988;DHT22;67216;50.930;4.514;2023-02-14T11:01:09;11.50;66.00
55988;DHT22;67216;50.930;4.514;2023-02-14T11:03:39;11.40;65.60
55988;DHT22;67216;50.930;4.514;2023-02-14T11:06:07;11.30;65.90
55988;DHT22;67216;50.930;4.514;2023-02-14T11:08:42;11.60;65.20
55988;DHT22;67216;50.930;4.514;2023-02-14T11:11:56;11.70;63.40
55988;DHT22;67216;50.930;4.514;2023-02-14T11:18:20;11.60;64.00
55988;DHT22;67216;50.930;4.514;2023-02-14T11:23:20;11.50;66.80
55988;DHT22;67216;50.930;4.514;2023-02-14T11:25:53;11.50;65.70
55988;DHT22;67216;50.930;4.514;2023-02-14T11:28:21;11.60;66.20
55988;DHT22;67216;50.930;4.514;2023-02-14T11:30:48;11.80;64.20
55988;DHT22;67216;50.930;4.514;2023-02-14T11:33:32;12.00;63.60
55988;DHT22;67216;50.930;4.514;2023-02-14T11:35:58;12.20;64.00
55988;DHT22;67216;50.930;4.514;2023-02-14T11:38:34;12.30;62.90
55988;DHT22;67216;50.930;4.514;2023-02-14T11:41:07;12.20;62.70
55988;DHT22;67216;50.930;4.514;2023-02-14T11:43:35;12.30;62.90
55988;DHT22;67216;50.930;4.514;2023-02-14T11:49:22;12.20;63.60
55988;DHT22;67216;50.930;4.514;2023-02-14T11:51:49;12.10;62.90
55988;DHT22;67216;50.930;4.514;2023-02-14T11:54:31;12.10;64.50
55988;DHT22;67216;50.930;4.514;2023-02-14T11:59:37;12.20;62.50
55988;DHT22;67216;50.930;4.514;2023-02-14T12:02:23;12.50;62.50
55988;DHT22;67216;50.930;4.514;2023-02-14T12:07:42;12.80;61.50
55988;DHT22;67216;50.930;4.514;2023-02-14T12:12:49;13.00;60.20
55988;DHT22;67216;50.930;4.514;2023-02-14T12:18:34;12.90;61.70
55988;DHT22;67216;50.930;4.514;2023-02-14T12:24:28;12.70;61.40
55988;DHT22;67216;50.930;4.514;2023-02-14T12:27:43;13.00;60.50
55988;DHT22;67216;50.930;4.514;2023-02-14T12:32:47;13.00;61.00
55988;DHT22;67216;50.930;4.514;2023-02-14T12:40:39;13.40;59.40
55988;DHT22;67216;50.930;4.514;2023-02-14T12:49:01;13.20;59.50
55988;DHT22;67216;50.930;4.514;2023-02-14T12:52:16;13.30;59.00
55988;DHT22;67216;50.930;4.514;2023-02-14T13:00:03;13.50;59.20
55988;DHT22;67216;50.930;4.514;2023-02-14T13:05:46;13.80;58.90
55988;DHT22;67216;50.930;4.514;2023-02-14T13:11:07;13.50;59.20
55988;DHT22;67216;50.930;4.514;2023-02-14T13:16:48;14.00;57.50
55988;DHT22;67216;50.930;4.514;2023-02-14T13:21:53;14.20;56.50
55988;DHT22;67216;50.930;4.514;2023-02-14T13:24:28;14.30;55.80
55988;DHT22;67216;50.930;4.514;2023-02-14T13:27:00;14.00;57.90
55988;DHT22;67216;50.930;4.514;2023-02-14T13:29:37;13.90;57.10
55988;DHT22;67216;50.930;4.514;2023-02-14T13:32:12;13.90;57.00
55988;DHT22;67216;50.930;4.514;2023-02-14T13:34:46;14.20;55.20
55988;DHT22;67216;50.930;4.514;2023-02-14T13:37:22;14.50;55.30
55988;DHT22;67216;50.930;4.514;2023-02-14T13:39:55;14.30;56.20
55988;DHT22;67216;50.930;4.514;2023-02-14T13:48:19;14.30;56.10
55988;DHT22;67216;50.930;4.514;2023-02-14T13:50:53;14.10;56.40
55988;DHT22;67216;50.930;4.514;2023-02-14T13:59:00;14.30;56.30
55988;DHT22;67216;50.930;4.514;2023-02-14T14:01:43;14.00;57.00
55988;DHT22;67216;50.930;4.514;2023-02-14T14:09:51;14.30;56.20
55988;DHT22;67216;50.930;4.514;2023-02-14T14:17:36;14.30;55.80
55988;DHT22;67216;50.930;4.514;2023-02-14T14:22:53;14.10;56.70
55988;DHT22;67216;50.930;4.514;2023-02-14T14:25:48;14.60;53.70
55988;DHT22;67216;50.930;4.514;2023-02-14T14:28:23;14.50;53.30
55988;DHT22;67216;50.930;4.514;2023-02-14T14:30:51;14.40;54.50
55988;DHT22;67216;50.930;4.514;2023-02-14T14:33:33;14.50;53.80
55988;DHT22;67216;50.930;4.514;2023-02-14T14:36:03;14.20;53.00
55988;DHT22;67216;50.930;4.514;2023-02-14T14:38:30;14.10;53.90
55988;DHT22;67216;50.930;4.514;2023-02-14T14:40:56;14.10;54.90
55988;DHT22;67216;50.930;4.514;2023-02-14T14:43:29;14.50;54.60
55988;DHT22;67216;50.930;4.514;2023-02-14T14:48:36;15.10;52.80
55988;DHT22;67216;50.930;4.514;2023-02-14T14:51:04;15.00;52.00
55988;DHT22;67216;50.930;4.514;2023-02-14T14:53:44;14.40;54.50
55988;DHT22;67216;50.930;4.514;2023-02-14T14:56:26;14.50;55.00
55988;DHT22;67216;50.930;4.514;2023-02-14T14:58:55;14.30;54.20
55988;DHT22;67216;50.930;4.514;2023-02-14T15:01:36;14.40;54.40
55988;DHT22;67216;50.930;4.514;2023-02-14T15:04:17;14.50;53.20
55988;DHT22;67216;50.930;4.514;2023-02-14T15:06:44;15.00;51.90
55988;DHT22;67216;50.930;4.514;2023-02-14T15:09:14;14.90;53.30
55988;DHT22;67216;50.930;4.514;2023-02-14T15:11:40;14.30;53.50
55988;DHT22;67216;50.930;4.514;2023-02-14T15:14:26;14.40;55.00
55988;DHT22;67216;50.930;4.514;2023-02-14T15:17:01;14.50;57.10
55988;DHT22;67216;50.930;4.514;2023-02-14T15:19:49;14.70;57.20
55988;DHT22;67216;50.930;4.514;2023-02-14T15:22:32;14.70;57.90
55988;DHT22;67216;50.930;4.514;2023-02-14T15:25:00;14.60;56.60
55988;DHT22;67216;50.930;4.514;2023-02-14T15:27:27;14.70;54.90
55988;DHT22;67216;50.930;4.514;2023-02-14T15:29:59;14.50;55.60
55988;DHT22;67216;50.930;4.514;2023-02-14T15:32:30;14.20;57.20
55988;DHT22;67216;50.930;4.514;2023-02-14T15:35:01;14.00;55.80
55988;DHT22;67216;50.930;4.514;2023-02-14T15:37:29;14.00;55.20
55988;DHT22;67216;50.930;4.514;2023-02-14T15:39:56;14.10;55.40
55988;DHT22;67216;50.930;4.514;2023-02-14T15:42:26;13.70;55.80
55988;DHT22;67216;50.930;4.514;2023-02-14T15:45:32;13.60;56.70
55988;DHT22;67216;50.930;4.514;2023-02-14T15:48:10;13.60;56.00
55988;DHT22;67216;50.930;4.514;2023-02-14T15:50:44;13.80;54.70
55988;DHT22;67216;50.930;4.514;2023-02-14T15:53:39;13.80;55.20
55988;DHT22;67216;50.930;4.514;2023-02-14T15:56:19;13.90;54.30
55988;DHT22;67216;50.930;4.514;2023-02-14T15:58:47;13.90;54.40
55988;DHT22;67216;50.930;4.514;2023-02-14T16:01:19;14.00;54.00
55988;DHT22;67216;50.930;4.514;2023-02-14T16:03:49;14.10;54.00
55988;DHT22;67216;50.930;4.514;2023-02-14T16:06:31;14.40;53.30
55988;DHT22;67216;50.930;4.514;2023-02-14T16:08:58;14.40;53.80
55988;DHT22;67216;50.930;4.514;2023-02-14T16:11:30;14.40;53.20
55988;DHT22;67216;50.930;4.514;2023-02-14T16:16:57;14.00;53.80
55988;DHT22;67216;50.930;4.514;2023-02-14T16:19:54;13.50;56.10
55988;DHT22;67216;50.930;4.514;2023-02-14T16:29:22;13.50;55.30
55988;DHT22;67216;50.930;4.514;2023-02-14T16:34:15;13.20;56.40
55988;DHT22;67216;50.930;4.514;2023-02-14T16:36:41;13.00;57.30
55988;DHT22;67216;50.930;4.514;2023-02-14T16:39:16;12.90;57.80
55988;DHT22;67216;50.930;4.514;2023-02-14T16:41:47;12.60;58.20
55988;DHT22;67216;50.930;4.514;2023-02-14T16:44:16;12.40;58.70
55988;DHT22;67216;50.930;4.514;2023-02-14T16:46:43;12.20;59.20
55988;DHT22;67216;50.930;4.514;2023-02-14T16:49:10;12.10;59.40
55988;DHT22;67216;50.930;4.514;2023-02-14T16:51:37;11.90;59.90
55988;DHT22;67216;50.930;4.514;2023-02-14T16:54:10;11.90;60.60
55988;DHT22;67216;50.930;4.514;2023-02-14T16:57:17;11.80;60.80
55988;DHT22;67216;50.930;4.514;2023-02-14T16:59:31;11.70;61.10
55988;DHT22;67216;50.930;4.514;2023-02-14T17:01:57;11.60;61.90
55988;DHT22;67216;50.930;4.514;2023-02-14T17:04:23;11.40;61.90
55988;DHT22;67216;50.930;4.514;2023-02-14T17:06:55;11.30;62.60
55988;DHT22;67216;50.930;4.514;2023-02-14T17:09:28;11.30;63.80
55988;DHT22;67216;50.930;4.514;2023-02-14T17:12:32;11.10;64.40
55988;DHT22;67216;50.930;4.514;2023-02-14T17:15:12;11.20;64.00
55988;DHT22;67216;50.930;4.514;2023-02-14T17:17:43;10.90;65.10
55988;DHT22;67216;50.930;4.514;2023-02-14T17:20:22;10.70;64.70
55988;DHT22;67216;50.930;4.514;2023-02-14T17:23:00;10.70;65.60
55988;DHT22;67216;50.930;4.514;2023-02-14T17:44:04;9.60;69.70
55988;DHT22;67216;50.930;4.514;2023-02-14T17:46:59;9.50;69.50
55988;DHT22;67216;50.930;4.514;2023-02-14T17:49:28;9.40;70.20
55988;DHT22;67216;50.930;4.514;2023-02-14T17:51:57;9.30;71.10
55988;DHT22;67216;50.930;4.514;2023-02-14T17:54:23;9.10;72.20
55988;DHT22;67216;50.930;4.514;2023-02-14T17:56:52;9.00;72.70
55988;DHT22;67216;50.930;4.514;2023-02-14T18:02:54;8.90;73.40
55988;DHT22;67216;50.930;4.514;2023-02-14T18:05:34;9.70;70.30
55988;DHT22;67216;50.930;4.514;2023-02-14T18:08:13;9.00;71.40
55988;DHT22;67216;50.930;4.514;2023-02-14T18:10:39;8.80;73.40
55988;DHT22;67216;50.930;4.514;2023-02-14T18:13:05;8.60;74.10
55988;DHT22;67216;50.930;4.514;2023-02-14T18:15:30;8.60;74.70
55988;DHT22;67216;50.930;4.514;2023-02-14T18:17:57;8.40;74.80
55988;DHT22;67216;50.930;4.514;2023-02-14T18:20:23;8.40;75.20
55988;DHT22;67216;50.930;4.514;2023-02-14T18:22:49;8.40;75.20
55988;DHT22;67216;50.930;4.514;2023-02-14T18:25:14;8.40;75.40
55988;DHT22;67216;50.930;4.514;2023-02-14T18:27:43;8.40;75.30
55988;DHT22;67216;50.930;4.514;2023-02-14T18:30:10;8.30;75.20
55988;DHT22;67216;50.930;4.514;2023-02-14T18:32:36;8.20;75.70
55988;DHT22;67216;50.930;4.514;2023-02-14T18:35:02;8.30;75.00
55988;DHT22;67216;50.930;4.514;2023-02-14T18:37:43;8.30;75.10
55988;DHT22;67216;50.930;4.514;2023-02-14T18:40:13;8.20;75.60
55988;DHT22;67216;50.930;4.514;2023-02-14T18:59:56;7.80;78.00
55988;DHT22;67216;50.930;4.514;2023-02-14T19:02:22;7.70;78.30
55988;DHT22;67216;50.930;4.514;2023-02-14T19:04:48;7.70;78.40
55988;DHT22;67216;50.930;4.514;2023-02-14T19:07:14;7.60;78.40
55988;DHT22;67216;50.930;4.514;2023-02-14T19:09:43;7.60;78.40
55988;DHT22;67216;50.930;4.514;2023-02-14T19:12:09;7.50;78.60
55988;DHT22;67216;50.930;4.514;2023-02-14T19:14:35;7.40;79.20
55988;DHT22;67216;50.930;4.514;2023-02-14T19:17:02;7.40;79.30
55988;DHT22;67216;50.930;4.514;2023-02-14T19:19:29;7.40;79.30
55988;DHT22;67216;50.930;4.514;2023-02-14T19:21:58;7.60;78.70
55988;DHT22;67216;50.930;4.514;2023-02-14T19:24:24;7.50;78.80
55988;DHT22;67216;50.930;4.514;2023-02-14T19:26:51;7.40;78.70
55988;DHT22;67216;50.930;4.514;2023-02-14T19:29:19;7.20;79.10
55988;DHT22;67216;50.930;4.514;2023-02-14T19:31:48;7.10;79.50
55988;DHT22;67216;50.930;4.514;2023-02-14T19:34:18;7.00;80.10
55988;DHT22;67216;50.930;4.514;2023-02-14T19:36:44;7.00;81.00
55988;DHT22;67216;50.930;4.514;2023-02-14T19:39:13;7.00;81.70
55988;DHT22;67216;50.930;4.514;2023-02-14T19:41:39;7.00;81.50